sensor_id;sensor_type;location;lat;lon;timestamp;P1;durP1;ratioP1;P2;durP2;ratioP2
21581;SDS011;10952;50.836;4.348;2022-09-13T00:00:58;11.17;;;5.33;;
21581;SDS011;10952;50.836;4.348;2022-09-13T00:05:53;9.37;;;4.60;;
21581;SDS011;10952;50.836;4.348;2022-09-13T00:08:19;11.00;;;4.60;;
21581;SDS011;10952;50.836;4.348;2022-09-13T00:10:48;10.43;;;4.83;;
21581;SDS011;10952;50.836;4.348;2022-09-13T00:15:44;8.97;;;5.07;;
21581;SDS011;10952;50.836;4.348;2022-09-13T00:18:20;7.57;;;4.57;;
21581;SDS011;10952;50.836;4.348;2022-09-13T00:20:46;10.63;;;4.67;;
21581;SDS011;10952;50.836;4.348;2022-09-13T00:23:12;10.77;;;5.00;;
21581;SDS011;10952;50.836;4.348;2022-09-13T00:25:38;7.07;;;4.67;;
21581;SDS011;10952;50.836;4.348;2022-09-13T00:30:36;9.13;;;4.57;;
21581;SDS011;10952;50.836;4.348;2022-09-13T00:33:08;7.80;;;4.00;;
21581;SDS011;10952;50.836;4.348;2022-09-13T00:35:33;10.60;;;4.90;;
21581;SDS011;10952;50.836;4.348;2022-09-13T00:37:59;9.47;;;3.83;;
21581;SDS011;10952;50.836;4.348;2022-09-13T00:40:25;9.37;;;4.13;;
21581;SDS011;10952;50.836;4.348;2022-09-13T00:45:28;8.83;;;4.13;;
21581;SDS011;10952;50.836;4.348;2022-09-13T00:47:55;7.47;;;4.27;;
21581;SDS011;10952;50.836;4.348;2022-09-13T00:55:27;10.80;;;4.43;;
21581;SDS011;10952;50.836;4.348;2022-09-13T00:58:12;7.30;;;4.37;;
21581;SDS011;10952;50.836;4.348;2022-09-13T01:00:44;8.17;;;3.97;;
21581;SDS011;10952;50.836;4.348;2022-09-13T01:03:19;7.30;;;3.30;;
21581;SDS011;10952;50.836;4.348;2022-09-13T01:08:49;4.47;;;1.90;;
21581;SDS011;10952;50.836;4.348;2022-09-13T01:14:24;3.77;;;1.77;;
21581;SDS011;10952;50.836;4.348;2022-09-13T01:16:57;4.47;;;1.70;;
21581;SDS011;10952;50.836;4.348;2022-09-13T01:19:23;3.67;;;1.40;;
21581;SDS011;10952;50.836;4.348;2022-09-13T01:30:35;2.07;;;1.50;;
21581;SDS011;10952;50.836;4.348;2022-09-13T01:33:15;4.00;;;1.60;;
21581;SDS011;10952;50.836;4.348;2022-09-13T01:39:03;2.90;;;1.67;;
21581;SDS011;10952;50.836;4.348;2022-09-13T01:48:12;4.73;;;1.67;;
21581;SDS011;10952;50.836;4.348;2022-09-13T01:56:10;4.83;;;1.70;;
21581;SDS011;10952;50.836;4.348;2022-09-13T02:01:35;3.70;;;1.83;;
21581;SDS011;10952;50.836;4.348;2022-09-13T02:04:14;3.30;;;2.10;;
21581;SDS011;10952;50.836;4.348;2022-09-13T02:06:52;4.10;;;2.00;;
21581;SDS011;10952;50.836;4.348;2022-09-13T02:09:35;3.40;;;1.93;;
21581;SDS011;10952;50.836;4.348;2022-09-13T02:12:06;5.53;;;1.90;;
21581;SDS011;10952;50.836;4.348;2022-09-13T02:14:38;4.40;;;2.60;;
21581;SDS011;10952;50.836;4.348;2022-09-13T02:17:08;4.27;;;2.60;;
21581;SDS011;10952;50.836;4.348;2022-09-13T02:19:48;6.13;;;3.70;;
21581;SDS011;10952;50.836;4.348;2022-09-13T02:22:22;8.73;;;3.67;;
21581;SDS011;10952;50.836;4.348;2022-09-13T02:24:55;6.00;;;2.70;;
21581;SDS011;10952;50.836;4.348;2022-09-13T02:27:30;6.47;;;2.27;;
21581;SDS011;10952;50.836;4.348;2022-09-13T02:30:00;7.40;;;2.70;;
21581;SDS011;10952;50.836;4.348;2022-09-13T02:32:32;6.40;;;2.80;;
21581;SDS011;10952;50.836;4.348;2022-09-13T02:35:28;6.03;;;2.30;;
21581;SDS011;10952;50.836;4.348;2022-09-13T02:38:12;5.87;;;2.83;;
21581;SDS011;10952;50.836;4.348;2022-09-13T02:40:50;5.53;;;2.77;;
21581;SDS011;10952;50.836;4.348;2022-09-13T02:43:40;7.03;;;2.67;;
21581;SDS011;10952;50.836;4.348;2022-09-13T02:46:16;5.53;;;2.60;;
21581;SDS011;10952;50.836;4.348;2022-09-13T02:48:57;5.80;;;2.23;;
21581;SDS011;10952;50.836;4.348;2022-09-13T02:54:35;7.00;;;2.63;;
21581;SDS011;10952;50.836;4.348;2022-09-13T02:57:25;8.73;;;3.20;;
21581;SDS011;10952;50.836;4.348;2022-09-13T02:59:56;4.70;;;2.93;;
21581;SDS011;10952;50.836;4.348;2022-09-13T03:02:22;7.73;;;2.67;;
21581;SDS011;10952;50.836;4.348;2022-09-13T03:04:52;7.90;;;3.00;;
21581;SDS011;10952;50.836;4.348;2022-09-13T03:07:20;6.97;;;2.63;;
21581;SDS011;10952;50.836;4.348;2022-09-13T03:09:51;9.77;;;2.87;;
21581;SDS011;10952;50.836;4.348;2022-09-13T03:15:16;5.50;;;3.10;;
21581;SDS011;10952;50.836;4.348;2022-09-13T03:23:18;6.17;;;2.90;;
21581;SDS011;10952;50.836;4.348;2022-09-13T03:25:58;8.17;;;3.13;;
21581;SDS011;10952;50.836;4.348;2022-09-13T03:31:35;9.23;;;3.03;;
21581;SDS011;10952;50.836;4.348;2022-09-13T03:36:46;5.07;;;2.90;;
21581;SDS011;10952;50.836;4.348;2022-09-13T03:42:01;8.40;;;3.00;;
21581;SDS011;10952;50.836;4.348;2022-09-13T03:44:36;7.57;;;3.23;;
21581;SDS011;10952;50.836;4.348;2022-09-13T03:47:03;8.20;;;3.40;;
21581;SDS011;10952;50.836;4.348;2022-09-13T03:49:30;7.70;;;3.17;;
21581;SDS011;10952;50.836;4.348;2022-09-13T03:51:58;6.53;;;3.17;;
21581;SDS011;10952;50.836;4.348;2022-09-13T03:54:26;9.03;;;3.23;;
21581;SDS011;10952;50.836;4.348;2022-09-13T03:57:13;6.57;;;2.77;;
21581;SDS011;10952;50.836;4.348;2022-09-13T03:59:49;6.20;;;3.50;;
21581;SDS011;10952;50.836;4.348;2022-09-13T04:02:17;4.53;;;3.00;;
21581;SDS011;10952;50.836;4.348;2022-09-13T04:04:45;6.03;;;2.60;;
21581;SDS011;10952;50.836;4.348;2022-09-13T04:07:19;6.10;;;2.67;;
21581;SDS011;10952;50.836;4.348;2022-09-13T04:09:47;5.40;;;2.63;;
21581;SDS011;10952;50.836;4.348;2022-09-13T04:12:13;4.40;;;2.50;;
21581;SDS011;10952;50.836;4.348;2022-09-13T04:14:40;5.80;;;2.67;;
21581;SDS011;10952;50.836;4.348;2022-09-13T04:17:07;5.23;;;2.20;;
21581;SDS011;10952;50.836;4.348;2022-09-13T04:19:33;6.20;;;3.00;;
21581;SDS011;10952;50.836;4.348;2022-09-13T04:21:58;4.83;;;2.33;;
21581;SDS011;10952;50.836;4.348;2022-09-13T04:24:25;5.30;;;2.63;;
21581;SDS011;10952;50.836;4.348;2022-09-13T04:26:52;6.57;;;2.70;;
21581;SDS011;10952;50.836;4.348;2022-09-13T04:29:19;6.07;;;3.27;;
21581;SDS011;10952;50.836;4.348;2022-09-13T04:31:46;6.27;;;2.83;;
21581;SDS011;10952;50.836;4.348;2022-09-13T04:34:12;4.17;;;2.90;;
21581;SDS011;10952;50.836;4.348;2022-09-13T04:36:38;4.97;;;2.80;;
21581;SDS011;10952;50.836;4.348;2022-09-13T04:39:04;5.77;;;2.80;;
21581;SDS011;10952;50.836;4.348;2022-09-13T04:41:39;4.33;;;2.60;;
21581;SDS011;10952;50.836;4.348;2022-09-13T04:44:07;6.53;;;2.80;;
21581;SDS011;10952;50.836;4.348;2022-09-13T04:46:33;5.50;;;2.70;;
21581;SDS011;10952;50.836;4.348;2022-09-13T04:49:00;7.93;;;2.93;;
21581;SDS011;10952;50.836;4.348;2022-09-13T04:51:26;7.30;;;3.50;;
21581;SDS011;10952;50.836;4.348;2022-09-13T04:53:53;8.50;;;3.53;;
21581;SDS011;10952;50.836;4.348;2022-09-13T04:56:24;7.70;;;3.27;;
21581;SDS011;10952;50.836;4.348;2022-09-13T04:58:51;6.90;;;3.53;;
21581;SDS011;10952;50.836;4.348;2022-09-13T05:01:22;4.63;;;3.10;;
21581;SDS011;10952;50.836;4.348;2022-09-13T05:04:00;8.13;;;3.17;;
21581;SDS011;10952;50.836;4.348;2022-09-13T05:09:26;8.93;;;3.50;;
21581;SDS011;10952;50.836;4.348;2022-09-13T05:11:51;6.40;;;3.73;;
21581;SDS011;10952;50.836;4.348;2022-09-13T05:16:47;6.10;;;3.93;;
21581;SDS011;10952;50.836;4.348;2022-09-13T05:19:14;7.10;;;4.37;;
21581;SDS011;10952;50.836;4.348;2022-09-13T05:21:41;9.77;;;3.80;;
21581;SDS011;10952;50.836;4.348;2022-09-13T05:26:37;10.57;;;3.90;;
21581;SDS011;10952;50.836;4.348;2022-09-13T05:29:03;6.80;;;3.73;;
21581;SDS011;10952;50.836;4.348;2022-09-13T05:31:31;9.20;;;4.00;;
21581;SDS011;10952;50.836;4.348;2022-09-13T05:34:03;9.83;;;4.10;;
21581;SDS011;10952;50.836;4.348;2022-09-13T05:39:14;6.57;;;3.70;;
21581;SDS011;10952;50.836;4.348;2022-09-13T05:42:00;8.33;;;4.00;;
21581;SDS011;10952;50.836;4.348;2022-09-13T05:44:29;5.70;;;3.50;;
21581;SDS011;10952;50.836;4.348;2022-09-13T05:46:58;6.10;;;3.90;;
21581;SDS011;10952;50.836;4.348;2022-09-13T05:49:38;9.20;;;3.93;;
21581;SDS011;10952;50.836;4.348;2022-09-13T05:52:11;10.37;;;4.97;;
21581;SDS011;10952;50.836;4.348;2022-09-13T05:54:39;10.83;;;4.47;;
21581;SDS011;10952;50.836;4.348;2022-09-13T05:57:07;9.93;;;4.50;;
21581;SDS011;10952;50.836;4.348;2022-09-13T05:59:34;11.07;;;4.13;;
21581;SDS011;10952;50.836;4.348;2022-09-13T06:02:02;13.87;;;5.10;;
21581;SDS011;10952;50.836;4.348;2022-09-13T06:04:30;12.13;;;4.80;;
21581;SDS011;10952;50.836;4.348;2022-09-13T06:06:55;12.90;;;4.77;;
21581;SDS011;10952;50.836;4.348;2022-09-13T06:09:21;7.90;;;5.13;;
21581;SDS011;10952;50.836;4.348;2022-09-13T06:11:48;16.43;;;5.47;;
21581;SDS011;10952;50.836;4.348;2022-09-13T06:14:14;11.17;;;5.90;;
21581;SDS011;10952;50.836;4.348;2022-09-13T06:16:40;14.33;;;5.67;;
21581;SDS011;10952;50.836;4.348;2022-09-13T06:19:06;18.37;;;7.10;;
21581;SDS011;10952;50.836;4.348;2022-09-13T06:21:32;22.23;;;6.73;;
21581;SDS011;10952;50.836;4.348;2022-09-13T06:23:59;25.93;;;8.00;;
21581;SDS011;10952;50.836;4.348;2022-09-13T06:26:26;20.63;;;6.30;;
21581;SDS011;10952;50.836;4.348;2022-09-13T06:28:53;17.97;;;7.23;;
21581;SDS011;10952;50.836;4.348;2022-09-13T06:31:21;14.20;;;5.93;;
21581;SDS011;10952;50.836;4.348;2022-09-13T06:33:48;9.53;;;5.27;;
21581;SDS011;10952;50.836;4.348;2022-09-13T06:36:21;17.70;;;6.80;;
21581;SDS011;10952;50.836;4.348;2022-09-13T06:38:49;30.87;;;8.27;;
21581;SDS011;10952;50.836;4.348;2022-09-13T06:41:19;25.27;;;8.10;;
21581;SDS011;10952;50.836;4.348;2022-09-13T06:43:51;33.10;;;8.70;;
21581;SDS011;10952;50.836;4.348;2022-09-13T06:46:18;32.70;;;10.77;;
21581;SDS011;10952;50.836;4.348;2022-09-13T06:48:47;16.67;;;7.27;;
21581;SDS011;10952;50.836;4.348;2022-09-13T06:51:15;13.70;;;5.83;;
21581;SDS011;10952;50.836;4.348;2022-09-13T06:53:44;15.17;;;7.10;;
21581;SDS011;10952;50.836;4.348;2022-09-13T06:56:14;17.57;;;6.67;;
21581;SDS011;10952;50.836;4.348;2022-09-13T06:58:42;17.90;;;7.60;;
21581;SDS011;10952;50.836;4.348;2022-09-13T07:03:49;22.30;;;8.53;;
21581;SDS011;10952;50.836;4.348;2022-09-13T07:06:25;12.53;;;6.80;;
21581;SDS011;10952;50.836;4.348;2022-09-13T07:08:59;14.40;;;6.23;;
21581;SDS011;10952;50.836;4.348;2022-09-13T07:11:28;15.27;;;6.83;;
21581;SDS011;10952;50.836;4.348;2022-09-13T07:13:57;18.17;;;6.40;;
21581;SDS011;10952;50.836;4.348;2022-09-13T07:16:31;11.60;;;6.40;;
21581;SDS011;10952;50.836;4.348;2022-09-13T07:19:01;37.20;;;8.10;;
21581;SDS011;10952;50.836;4.348;2022-09-13T07:21:30;16.00;;;6.83;;
21581;SDS011;10952;50.836;4.348;2022-09-13T07:23:59;19.53;;;7.30;;
21581;SDS011;10952;50.836;4.348;2022-09-13T07:31:31;20.30;;;6.67;;
21581;SDS011;10952;50.836;4.348;2022-09-13T07:34:03;21.20;;;8.73;;
21581;SDS011;10952;50.836;4.348;2022-09-13T07:36:34;25.80;;;7.63;;
21581;SDS011;10952;50.836;4.348;2022-09-13T07:39:00;17.30;;;6.83;;
21581;SDS011;10952;50.836;4.348;2022-09-13T07:41:28;18.57;;;7.50;;
21581;SDS011;10952;50.836;4.348;2022-09-13T07:43:57;22.60;;;8.37;;
21581;SDS011;10952;50.836;4.348;2022-09-13T07:46:30;17.83;;;8.37;;
21581;SDS011;10952;50.836;4.348;2022-09-13T07:48:58;23.37;;;7.20;;
21581;SDS011;10952;50.836;4.348;2022-09-13T07:51:31;19.47;;;6.90;;
21581;SDS011;10952;50.836;4.348;2022-09-13T07:54:02;13.27;;;6.10;;
21581;SDS011;10952;50.836;4.348;2022-09-13T07:59:00;12.97;;;5.00;;
21581;SDS011;10952;50.836;4.348;2022-09-13T08:01:29;12.33;;;5.50;;
21581;SDS011;10952;50.836;4.348;2022-09-13T08:03:59;10.20;;;4.17;;
21581;SDS011;10952;50.836;4.348;2022-09-13T08:06:33;11.67;;;5.20;;
21581;SDS011;10952;50.836;4.348;2022-09-13T08:09:02;9.77;;;4.77;;
21581;SDS011;10952;50.836;4.348;2022-09-13T08:11:36;13.77;;;5.03;;
21581;SDS011;10952;50.836;4.348;2022-09-13T08:14:10;19.33;;;7.97;;
21581;SDS011;10952;50.836;4.348;2022-09-13T08:21:45;16.60;;;5.40;;
21581;SDS011;10952;50.836;4.348;2022-09-13T08:24:18;14.60;;;5.50;;
21581;SDS011;10952;50.836;4.348;2022-09-13T08:26:45;12.75;;;5.20;;
21581;SDS011;10952;50.836;4.348;2022-09-13T08:29:13;44.07;;;8.83;;
21581;SDS011;10952;50.836;4.348;2022-09-13T08:31:41;17.10;;;4.57;;
21581;SDS011;10952;50.836;4.348;2022-09-13T08:34:12;18.00;;;6.13;;
21581;SDS011;10952;50.836;4.348;2022-09-13T08:36:42;14.40;;;5.33;;
21581;SDS011;10952;50.836;4.348;2022-09-13T08:39:10;21.80;;;8.43;;
21581;SDS011;10952;50.836;4.348;2022-09-13T08:41:51;24.37;;;6.50;;
21581;SDS011;10952;50.836;4.348;2022-09-13T08:44:46;14.40;;;6.68;;
21581;SDS011;10952;50.836;4.348;2022-09-13T08:52:55;17.02;;;6.18;;
21581;SDS011;10952;50.836;4.348;2022-09-13T08:55:46;11.30;;;5.53;;
21581;SDS011;10952;50.836;4.348;2022-09-13T09:09:41;15.77;;;5.90;;
21581;SDS011;10952;50.836;4.348;2022-09-13T09:15:43;21.60;;;6.80;;
21581;SDS011;10952;50.836;4.348;2022-09-13T09:23:29;18.27;;;6.20;;
21581;SDS011;10952;50.836;4.348;2022-09-13T09:28:54;11.70;;;5.35;;
21581;SDS011;10952;50.836;4.348;2022-09-13T09:31:30;9.77;;;5.05;;
21581;SDS011;10952;50.836;4.348;2022-09-13T09:34:11;13.57;;;5.60;;
21581;SDS011;10952;50.836;4.348;2022-09-13T09:39:39;16.75;;;6.50;;
21581;SDS011;10952;50.836;4.348;2022-09-13T09:47:48;13.13;;;6.72;;
21581;SDS011;10952;50.836;4.348;2022-09-13T09:50:19;14.88;;;6.28;;
21581;SDS011;10952;50.836;4.348;2022-09-13T09:58:10;12.63;;;5.95;;
21581;SDS011;10952;50.836;4.348;2022-09-13T10:00:58;13.90;;;6.60;;
21581;SDS011;10952;50.836;4.348;2022-09-13T10:03:27;11.38;;;5.20;;
21581;SDS011;10952;50.836;4.348;2022-09-13T10:06:10;28.50;;;13.68;;
21581;SDS011;10952;50.836;4.348;2022-09-13T10:08:41;19.45;;;6.13;;
21581;SDS011;10952;50.836;4.348;2022-09-13T10:11:10;20.13;;;10.00;;
21581;SDS011;10952;50.836;4.348;2022-09-13T10:16:27;10.73;;;4.90;;
21581;SDS011;10952;50.836;4.348;2022-09-13T10:18:59;9.88;;;4.18;;
21581;SDS011;10952;50.836;4.348;2022-09-13T10:21:59;18.45;;;7.78;;
21581;SDS011;10952;50.836;4.348;2022-09-13T10:24:32;10.90;;;4.50;;
21581;SDS011;10952;50.836;4.348;2022-09-13T10:26:59;17.30;;;5.03;;
21581;SDS011;10952;50.836;4.348;2022-09-13T10:29:31;17.73;;;5.78;;
21581;SDS011;10952;50.836;4.348;2022-09-13T10:31:57;8.93;;;4.35;;
21581;SDS011;10952;50.836;4.348;2022-09-13T10:34:34;12.55;;;4.28;;
21581;SDS011;10952;50.836;4.348;2022-09-13T10:37:13;13.20;;;4.57;;
21581;SDS011;10952;50.836;4.348;2022-09-13T10:44:53;16.25;;;5.20;;
21581;SDS011;10952;50.836;4.348;2022-09-13T10:47:25;24.38;;;9.77;;
21581;SDS011;10952;50.836;4.348;2022-09-13T10:49:57;15.88;;;5.00;;
21581;SDS011;10952;50.836;4.348;2022-09-13T10:52:56;12.63;;;4.40;;
21581;SDS011;10952;50.836;4.348;2022-09-13T10:55:35;20.40;;;3.97;;
21581;SDS011;10952;50.836;4.348;2022-09-13T11:26:18;19.70;;;5.32;;
21581;SDS011;10952;50.836;4.348;2022-09-13T11:31:55;13.65;;;4.30;;
21581;SDS011;10952;50.836;4.348;2022-09-13T11:34:27;9.48;;;5.70;;
21581;SDS011;10952;50.836;4.348;2022-09-13T11:37:07;16.13;;;4.78;;
21581;SDS011;10952;50.836;4.348;2022-09-13T11:39:57;9.55;;;4.55;;
21581;SDS011;10952;50.836;4.348;2022-09-13T11:50:27;23.58;;;6.40;;
21581;SDS011;10952;50.836;4.348;2022-09-13T11:56:20;19.25;;;9.48;;
21581;SDS011;10952;50.836;4.348;2022-09-13T11:59:00;11.50;;;3.90;;
21581;SDS011;10952;50.836;4.348;2022-09-13T12:01:37;16.00;;;3.97;;
21581;SDS011;10952;50.836;4.348;2022-09-13T12:04:11;10.25;;;4.28;;
21581;SDS011;10952;50.836;4.348;2022-09-13T12:06:54;16.33;;;4.78;;
21581;SDS011;10952;50.836;4.348;2022-09-13T12:09:26;9.95;;;4.78;;
21581;SDS011;10952;50.836;4.348;2022-09-13T12:12:05;12.55;;;7.22;;
21581;SDS011;10952;50.836;4.348;2022-09-13T12:14:53;10.05;;;5.60;;
21581;SDS011;10952;50.836;4.348;2022-09-13T12:19:59;22.17;;;5.07;;
21581;SDS011;10952;50.836;4.348;2022-09-13T12:22:28;10.88;;;4.30;;
21581;SDS011;10952;50.836;4.348;2022-09-13T12:24:57;11.35;;;4.20;;
21581;SDS011;10952;50.836;4.348;2022-09-13T12:27:30;17.25;;;4.82;;
21581;SDS011;10952;50.836;4.348;2022-09-13T12:32:29;10.10;;;5.03;;
21581;SDS011;10952;50.836;4.348;2022-09-13T12:34:57;13.15;;;5.43;;
21581;SDS011;10952;50.836;4.348;2022-09-13T12:37:42;12.95;;;4.82;;
21581;SDS011;10952;50.836;4.348;2022-09-13T12:54:06;19.17;;;5.47;;
21581;SDS011;10952;50.836;4.348;2022-09-13T12:56:45;20.83;;;8.45;;
21581;SDS011;10952;50.836;4.348;2022-09-13T13:05:47;15.90;;;6.57;;
21581;SDS011;10952;50.836;4.348;2022-09-13T13:08:00;19.10;;;7.03;;
21581;SDS011;10952;50.836;4.348;2022-09-13T13:10:35;12.25;;;5.30;;
21581;SDS011;10952;50.836;4.348;2022-09-13T13:13:18;10.32;;;5.90;;
21581;SDS011;10952;50.836;4.348;2022-09-13T13:24:37;19.90;;;5.55;;
21581;SDS011;10952;50.836;4.348;2022-09-13T13:26:52;14.50;;;5.78;;
21581;SDS011;10952;50.836;4.348;2022-09-13T13:29:21;17.40;;;5.72;;
21581;SDS011;10952;50.836;4.348;2022-09-13T13:36:49;10.68;;;4.55;;
21581;SDS011;10952;50.836;4.348;2022-09-13T13:58:00;14.98;;;6.50;;
21581;SDS011;10952;50.836;4.348;2022-09-13T14:00:29;12.20;;;6.93;;
21581;SDS011;10952;50.836;4.348;2022-09-13T14:16:57;12.05;;;4.50;;
21581;SDS011;10952;50.836;4.348;2022-09-13T14:22:14;15.52;;;5.40;;
21581;SDS011;10952;50.836;4.348;2022-09-13T14:24:41;36.03;;;7.45;;
21581;SDS011;10952;50.836;4.348;2022-09-13T14:27:21;11.75;;;5.40;;
21581;SDS011;10952;50.836;4.348;2022-09-13T14:29:58;12.13;;;4.82;;
21581;SDS011;10952;50.836;4.348;2022-09-13T14:32:28;10.32;;;5.38;;
21581;SDS011;10952;50.836;4.348;2022-09-13T14:34:58;14.27;;;5.47;;
21581;SDS011;10952;50.836;4.348;2022-09-13T14:37:30;20.80;;;6.85;;
21581;SDS011;10952;50.836;4.348;2022-09-13T14:42:48;13.85;;;5.90;;
21581;SDS011;10952;50.836;4.348;2022-09-13T14:45:18;15.10;;;6.38;;
21581;SDS011;10952;50.836;4.348;2022-09-13T14:50:28;11.50;;;6.15;;
21581;SDS011;10952;50.836;4.348;2022-09-13T14:53:00;21.55;;;7.72;;
21581;SDS011;10952;50.836;4.348;2022-09-13T14:55:33;15.52;;;7.20;;
21581;SDS011;10952;50.836;4.348;2022-09-13T14:58:12;14.02;;;7.72;;
21581;SDS011;10952;50.836;4.348;2022-09-13T15:00:45;13.43;;;7.25;;
21581;SDS011;10952;50.836;4.348;2022-09-13T15:03:16;9.90;;;6.35;;
21581;SDS011;10952;50.836;4.348;2022-09-13T15:05:54;10.27;;;6.50;;
21581;SDS011;10952;50.836;4.348;2022-09-13T15:10:57;25.38;;;9.45;;
21581;SDS011;10952;50.836;4.348;2022-09-13T15:13:24;19.15;;;9.52;;
21581;SDS011;10952;50.836;4.348;2022-09-13T15:15:51;11.60;;;8.07;;
21581;SDS011;10952;50.836;4.348;2022-09-13T15:23:34;17.00;;;10.07;;
21581;SDS011;10952;50.836;4.348;2022-09-13T15:26:18;14.50;;;9.07;;
21581;SDS011;10952;50.836;4.348;2022-09-13T15:36:41;16.58;;;8.60;;
21581;SDS011;10952;50.836;4.348;2022-09-13T15:44:00;13.70;;;8.02;;
21581;SDS011;10952;50.836;4.348;2022-09-13T15:46:27;13.90;;;7.70;;
21581;SDS011;10952;50.836;4.348;2022-09-13T15:49:03;13.98;;;8.70;;
21581;SDS011;10952;50.836;4.348;2022-09-13T15:51:32;15.57;;;8.98;;
21581;SDS011;10952;50.836;4.348;2022-09-13T15:54:00;13.82;;;8.25;;
21581;SDS011;10952;50.836;4.348;2022-09-13T15:56:29;14.70;;;7.97;;
21581;SDS011;10952;50.836;4.348;2022-09-13T15:58:56;30.27;;;9.88;;
21581;SDS011;10952;50.836;4.348;2022-09-13T16:01:22;22.15;;;9.20;;
21581;SDS011;10952;50.836;4.348;2022-09-13T16:03:48;18.80;;;11.88;;
21581;SDS011;10952;50.836;4.348;2022-09-13T16:06:13;16.70;;;8.65;;
21581;SDS011;10952;50.836;4.348;2022-09-13T16:08:40;16.25;;;8.60;;
21581;SDS011;10952;50.836;4.348;2022-09-13T16:11:06;16.63;;;9.10;;
21581;SDS011;10952;50.836;4.348;2022-09-13T16:13:32;19.92;;;9.73;;
21581;SDS011;10952;50.836;4.348;2022-09-13T16:15:58;17.13;;;9.25;;
21581;SDS011;10952;50.836;4.348;2022-09-13T16:18:25;19.15;;;9.85;;
21581;SDS011;10952;50.836;4.348;2022-09-13T16:20:51;16.15;;;9.63;;
21581;SDS011;10952;50.836;4.348;2022-09-13T16:23:17;14.50;;;8.90;;
21581;SDS011;10952;50.836;4.348;2022-09-13T16:25:44;33.10;;;9.90;;
21581;SDS011;10952;50.836;4.348;2022-09-13T16:28:15;16.33;;;8.40;;
21581;SDS011;10952;50.836;4.348;2022-09-13T16:30:45;51.28;;;14.15;;
21581;SDS011;10952;50.836;4.348;2022-09-13T16:33:11;13.02;;;8.70;;
21581;SDS011;10952;50.836;4.348;2022-09-13T16:35:38;14.70;;;8.85;;
21581;SDS011;10952;50.836;4.348;2022-09-13T16:38:04;14.85;;;8.90;;
21581;SDS011;10952;50.836;4.348;2022-09-13T16:40:29;29.33;;;15.52;;
21581;SDS011;10952;50.836;4.348;2022-09-13T16:42:56;16.23;;;8.15;;
21581;SDS011;10952;50.836;4.348;2022-09-13T16:45:22;17.85;;;7.40;;
21581;SDS011;10952;50.836;4.348;2022-09-13T16:47:47;13.43;;;7.45;;
21581;SDS011;10952;50.836;4.348;2022-09-13T16:50:14;14.07;;;7.18;;
21581;SDS011;10952;50.836;4.348;2022-09-13T16:52:40;14.13;;;7.00;;
21581;SDS011;10952;50.836;4.348;2022-09-13T16:55:06;9.93;;;6.17;;
21581;SDS011;10952;50.836;4.348;2022-09-13T16:57:32;10.35;;;6.18;;
21581;SDS011;10952;50.836;4.348;2022-09-13T16:59:58;30.00;;;9.27;;
21581;SDS011;10952;50.836;4.348;2022-09-13T17:02:24;12.37;;;7.67;;
21581;SDS011;10952;50.836;4.348;2022-09-13T17:04:51;21.93;;;8.63;;
21581;SDS011;10952;50.836;4.348;2022-09-13T17:07:16;15.40;;;7.40;;
21581;SDS011;10952;50.836;4.348;2022-09-13T17:09:42;30.17;;;10.70;;
21581;SDS011;10952;50.836;4.348;2022-09-13T17:12:08;14.63;;;8.50;;
21581;SDS011;10952;50.836;4.348;2022-09-13T17:14:35;10.93;;;6.53;;
21581;SDS011;10952;50.836;4.348;2022-09-13T17:17:01;9.83;;;5.60;;
21581;SDS011;10952;50.836;4.348;2022-09-13T17:19:29;18.17;;;6.97;;
21581;SDS011;10952;50.836;4.348;2022-09-13T17:22:00;19.57;;;8.83;;
21581;SDS011;10952;50.836;4.348;2022-09-13T17:24:28;13.10;;;8.47;;
21581;SDS011;10952;50.836;4.348;2022-09-13T17:26:55;19.47;;;8.97;;
21581;SDS011;10952;50.836;4.348;2022-09-13T17:29:22;16.00;;;8.47;;
21581;SDS011;10952;50.836;4.348;2022-09-13T17:31:49;16.20;;;8.60;;
21581;SDS011;10952;50.836;4.348;2022-09-13T17:34:16;15.07;;;9.27;;
21581;SDS011;10952;50.836;4.348;2022-09-13T17:36:41;17.23;;;10.47;;
21581;SDS011;10952;50.836;4.348;2022-09-13T17:39:08;12.57;;;9.10;;
21581;SDS011;10952;50.836;4.348;2022-09-13T17:41:34;14.97;;;9.33;;
21581;SDS011;10952;50.836;4.348;2022-09-13T17:44:00;15.97;;;9.63;;
21581;SDS011;10952;50.836;4.348;2022-09-13T17:46:27;16.90;;;9.97;;
21581;SDS011;10952;50.836;4.348;2022-09-13T17:48:55;13.10;;;9.20;;
21581;SDS011;10952;50.836;4.348;2022-09-13T17:51:24;16.93;;;9.73;;
21581;SDS011;10952;50.836;4.348;2022-09-13T17:53:52;17.93;;;10.80;;
21581;SDS011;10952;50.836;4.348;2022-09-13T17:56:41;18.87;;;11.53;;
21581;SDS011;10952;50.836;4.348;2022-09-13T17:59:08;18.37;;;11.10;;
21581;SDS011;10952;50.836;4.348;2022-09-13T18:01:36;15.27;;;9.63;;
21581;SDS011;10952;50.836;4.348;2022-09-13T18:04:03;19.33;;;11.20;;
21581;SDS011;10952;50.836;4.348;2022-09-13T18:06:29;17.50;;;11.83;;
21581;SDS011;10952;50.836;4.348;2022-09-13T18:08:54;23.33;;;11.90;;
21581;SDS011;10952;50.836;4.348;2022-09-13T18:11:20;23.43;;;12.30;;
21581;SDS011;10952;50.836;4.348;2022-09-13T18:13:47;15.70;;;10.30;;
21581;SDS011;10952;50.836;4.348;2022-09-13T18:16:15;16.87;;;11.20;;
21581;SDS011;10952;50.836;4.348;2022-09-13T18:18:43;18.07;;;10.87;;
21581;SDS011;10952;50.836;4.348;2022-09-13T18:21:10;20.67;;;11.83;;
21581;SDS011;10952;50.836;4.348;2022-09-13T18:23:39;21.00;;;12.17;;
21581;SDS011;10952;50.836;4.348;2022-09-13T18:26:09;16.40;;;10.57;;
21581;SDS011;10952;50.836;4.348;2022-09-13T18:28:36;17.00;;;11.13;;
21581;SDS011;10952;50.836;4.348;2022-09-13T18:31:03;17.37;;;10.43;;
21581;SDS011;10952;50.836;4.348;2022-09-13T18:33:31;16.50;;;10.93;;
21581;SDS011;10952;50.836;4.348;2022-09-13T18:35:58;17.33;;;11.33;;
21581;SDS011;10952;50.836;4.348;2022-09-13T18:41:07;17.07;;;10.80;;
21581;SDS011;10952;50.836;4.348;2022-09-13T18:43:45;17.97;;;9.60;;
21581;SDS011;10952;50.836;4.348;2022-09-13T18:48:43;17.13;;;9.70;;
21581;SDS011;10952;50.836;4.348;2022-09-13T18:51:13;14.50;;;8.87;;
21581;SDS011;10952;50.836;4.348;2022-09-13T18:53:43;16.73;;;9.23;;
21581;SDS011;10952;50.836;4.348;2022-09-13T18:56:10;15.00;;;10.10;;
21581;SDS011;10952;50.836;4.348;2022-09-13T18:58:39;15.17;;;10.00;;
21581;SDS011;10952;50.836;4.348;2022-09-13T19:01:16;14.70;;;10.20;;
21581;SDS011;10952;50.836;4.348;2022-09-13T19:08:47;17.37;;;11.23;;
21581;SDS011;10952;50.836;4.348;2022-09-13T19:13:45;10.03;;;8.00;;
21581;SDS011;10952;50.836;4.348;2022-09-13T19:16:13;15.73;;;8.90;;
21581;SDS011;10952;50.836;4.348;2022-09-13T19:18:44;16.30;;;9.10;;
21581;SDS011;10952;50.836;4.348;2022-09-13T19:21:22;13.00;;;8.03;;
21581;SDS011;10952;50.836;4.348;2022-09-13T19:23:53;14.80;;;8.33;;
21581;SDS011;10952;50.836;4.348;2022-09-13T19:26:23;11.10;;;6.97;;
21581;SDS011;10952;50.836;4.348;2022-09-13T19:29:03;14.33;;;7.37;;
21581;SDS011;10952;50.836;4.348;2022-09-13T19:31:34;14.23;;;9.33;;
21581;SDS011;10952;50.836;4.348;2022-09-13T19:34:02;10.37;;;7.60;;
21581;SDS011;10952;50.836;4.348;2022-09-13T19:36:30;12.93;;;8.57;;
21581;SDS011;10952;50.836;4.348;2022-09-13T19:38:57;14.33;;;9.83;;
21581;SDS011;10952;50.836;4.348;2022-09-13T19:41:24;11.60;;;8.00;;
21581;SDS011;10952;50.836;4.348;2022-09-13T19:43:52;12.13;;;9.27;;
21581;SDS011;10952;50.836;4.348;2022-09-13T19:46:20;11.33;;;8.57;;
21581;SDS011;10952;50.836;4.348;2022-09-13T19:48:50;15.17;;;9.83;;
21581;SDS011;10952;50.836;4.348;2022-09-13T19:51:20;14.80;;;9.03;;
21581;SDS011;10952;50.836;4.348;2022-09-13T19:53:49;12.37;;;9.70;;
21581;SDS011;10952;50.836;4.348;2022-09-13T19:56:19;13.40;;;9.83;;
21581;SDS011;10952;50.836;4.348;2022-09-13T19:58:46;12.43;;;9.53;;